sensor_id;sensor_type;location;lat;lon;timestamp;pressure;altitude;pressure_sealevel;temperature;humidity
58092;BME280;43896;48.178;11.578;2023-03-23T00:02:25;95395.09;;;13.96;44.05
58092;BME280;43896;48.178;11.578;2023-03-23T00:04:52;95390.38;;;13.92;43.92
58092;BME280;43896;48.178;11.578;2023-03-23T00:07:18;95359.91;;;13.74;44.05
58092;BME280;43896;48.178;11.578;2023-03-23T00:09:49;95379.53;;;13.86;44.17
58092;BME280;43896;48.178;11.578;2023-03-23T00:12:26;95343.38;;;13.65;44.31
58092;BME280;43896;48.178;11.578;2023-03-23T00:15:08;95343.00;;;13.68;44.17
58092;BME280;43896;48.178;11.578;2023-03-23T00:17:38;95405.31;;;14.06;44.15
58092;BME280;43896;48.178;11.578;2023-03-23T00:20:04;95380.16;;;13.88;44.53
58092;BME280;43896;48.178;11.578;2023-03-23T00:22:33;95400.81;;;14.00;44.54
58092;BME280;43896;48.178;11.578;2023-03-23T00:25:06;95317.38;;;13.47;44.45
58092;BME280;43896;48.178;11.578;2023-03-23T00:27:33;95313.50;;;13.43;44.68
58092;BME280;43896;48.178;11.578;2023-03-23T00:29:59;95394.94;;;14.04;44.76
58092;BME280;43896;48.178;11.578;2023-03-23T00:32:25;95365.28;;;13.81;44.68
58092;BME280;43896;48.178;11.578;2023-03-23T00:34:54;95399.88;;;13.86;44.93
58092;BME280;43896;48.178;11.578;2023-03-23T00:37:20;95365.94;;;13.68;45.19
58092;BME280;43896;48.178;11.578;2023-03-23T00:39:45;95389.13;;;13.87;45.47
58092;BME280;43896;48.178;11.578;2023-03-23T00:42:15;95388.63;;;13.77;45.68
58092;BME280;43896;48.178;11.578;2023-03-23T00:44:41;95337.16;;;13.52;45.48
58092;BME280;43896;48.178;11.578;2023-03-23T00:47:09;95342.44;;;13.52;45.65
58092;BME280;43896;48.178;11.578;2023-03-23T00:49:35;95359.91;;;13.74;45.39
58092;BME280;43896;48.178;11.578;2023-03-23T00:52:02;95395.28;;;13.95;45.66
58092;BME280;43896;48.178;11.578;2023-03-23T00:54:28;95329.53;;;13.42;45.87
58092;BME280;43896;48.178;11.578;2023-03-23T00:56:54;95376.97;;;13.72;45.82
58092;BME280;43896;48.178;11.578;2023-03-23T00:59:20;95337.34;;;13.50;45.70
58092;BME280;43896;48.178;11.578;2023-03-23T01:01:46;95318.72;;;13.37;46.10
58092;BME280;43896;48.178;11.578;2023-03-23T01:04:11;95319.09;;;13.34;46.29
58092;BME280;43896;48.178;11.578;2023-03-23T01:06:38;95318.59;;;13.30;46.15
58092;BME280;43896;48.178;11.578;2023-03-23T01:09:14;95400.56;;;13.73;46.32
58092;BME280;43896;48.178;11.578;2023-03-23T01:11:42;95328.91;;;13.25;46.50
58092;BME280;43896;48.178;11.578;2023-03-23T01:14:09;95334.94;;;13.34;46.55
58092;BME280;43896;48.178;11.578;2023-03-23T01:16:34;95380.31;;;13.59;46.93
58092;BME280;43896;48.178;11.578;2023-03-23T01:19:00;95324.84;;;13.22;46.87
58092;BME280;43896;48.178;11.578;2023-03-23T01:21:25;95315.56;;;13.11;46.82
58092;BME280;43896;48.178;11.578;2023-03-23T01:23:51;95341.38;;;13.31;46.97
58092;BME280;43896;48.178;11.578;2023-03-23T01:26:19;95349.59;;;13.36;46.77
58092;BME280;43896;48.178;11.578;2023-03-23T01:28:45;95355.25;;;13.33;46.83
58092;BME280;43896;48.178;11.578;2023-03-23T01:31:16;95382.06;;;13.52;47.36
58092;BME280;43896;48.178;11.578;2023-03-23T01:33:43;95386.06;;;13.47;47.56
58092;BME280;43896;48.178;11.578;2023-03-23T01:36:14;95364.53;;;13.29;47.65
58092;BME280;43896;48.178;11.578;2023-03-23T01:38:42;95387.81;;;13.40;47.87
58092;BME280;43896;48.178;11.578;2023-03-23T01:41:08;95374.44;;;13.27;47.88
58092;BME280;43896;48.178;11.578;2023-03-23T01:43:34;95305.38;;;12.72;48.47
58092;BME280;43896;48.178;11.578;2023-03-23T01:45:59;95391.31;;;13.26;47.99
58092;BME280;43896;48.178;11.578;2023-03-23T01:48:28;95368.75;;;13.08;48.50
58092;BME280;43896;48.178;11.578;2023-03-23T01:51:03;95381.38;;;13.13;48.19
58092;BME280;43896;48.178;11.578;2023-03-23T01:53:40;95383.59;;;13.09;47.92
58092;BME280;43896;48.178;11.578;2023-03-23T01:56:08;95328.94;;;12.73;48.11
58092;BME280;43896;48.178;11.578;2023-03-23T01:58:37;95360.13;;;13.00;48.07
58092;BME280;43896;48.178;11.578;2023-03-23T02:01:09;95364.66;;;13.06;48.05
58092;BME280;43896;48.178;11.578;2023-03-23T02:03:38;95349.94;;;12.97;48.09
58092;BME280;43896;48.178;11.578;2023-03-23T02:06:05;95341.41;;;12.94;48.18
58092;BME280;43896;48.178;11.578;2023-03-23T02:08:32;95362.38;;;13.03;48.26
58092;BME280;43896;48.178;11.578;2023-03-23T02:10:59;95382.78;;;12.94;49.50
58092;BME280;43896;48.178;11.578;2023-03-23T02:13:25;95365.97;;;12.80;49.42
58092;BME280;43896;48.178;11.578;2023-03-23T02:26:52;95356.75;;;12.16;52.50
58092;BME280;43896;48.178;11.578;2023-03-23T02:32:00;95303.66;;;12.05;52.10
58092;BME280;43896;48.178;11.578;2023-03-23T02:34:48;95295.22;;;12.09;52.05
58092;BME280;43896;48.178;11.578;2023-03-23T02:37:31;95315.03;;;12.20;50.52
58092;BME280;43896;48.178;11.578;2023-03-23T02:40:05;95346.44;;;12.45;50.46
58092;BME280;43896;48.178;11.578;2023-03-23T02:42:38;95359.50;;;12.53;50.69
58092;BME280;43896;48.178;11.578;2023-03-23T02:45:07;95337.78;;;12.51;50.38
58092;BME280;43896;48.178;11.578;2023-03-23T02:47:35;95304.22;;;12.30;50.74
58092;BME280;43896;48.178;11.578;2023-03-23T02:50:03;95336.88;;;12.59;51.03
58092;BME280;43896;48.178;11.578;2023-03-23T02:52:31;95352.97;;;12.64;50.93
58092;BME280;43896;48.178;11.578;2023-03-23T02:54:59;95314.03;;;12.36;50.30
58092;BME280;43896;48.178;11.578;2023-03-23T02:57:25;95302.22;;;12.32;50.40
58092;BME280;43896;48.178;11.578;2023-03-23T02:59:52;95291.41;;;12.27;50.94
58092;BME280;43896;48.178;11.578;2023-03-23T03:02:27;95319.13;;;12.37;51.58
58092;BME280;43896;48.178;11.578;2023-03-23T03:05:04;95284.69;;;12.09;51.84
58092;BME280;43896;48.178;11.578;2023-03-23T03:10:21;95313.22;;;12.06;53.12
58092;BME280;43896;48.178;11.578;2023-03-23T03:13:08;95359.56;;;12.15;53.22
58092;BME280;43896;48.178;11.578;2023-03-23T03:15:44;95348.41;;;12.13;53.43
58092;BME280;43896;48.178;11.578;2023-03-23T03:18:26;95354.47;;;11.98;53.84
58092;BME280;43896;48.178;11.578;2023-03-23T03:21:00;95304.44;;;11.52;54.00
58092;BME280;43896;48.178;11.578;2023-03-23T03:23:28;95322.78;;;11.83;53.52
58092;BME280;43896;48.178;11.578;2023-03-23T03:25:55;95267.66;;;11.44;53.86
58092;BME280;43896;48.178;11.578;2023-03-23T03:28:23;95299.50;;;11.72;53.72
58092;BME280;43896;48.178;11.578;2023-03-23T03:30:54;95321.72;;;11.93;53.41
58092;BME280;43896;48.178;11.578;2023-03-23T03:33:21;95306.00;;;11.85;53.05
58092;BME280;43896;48.178;11.578;2023-03-23T03:35:51;95245.31;;;11.55;51.45
58092;BME280;43896;48.178;11.578;2023-03-23T03:38:17;95290.56;;;11.96;51.80
58092;BME280;43896;48.178;11.578;2023-03-23T03:40:42;95310.88;;;12.11;51.84
58092;BME280;43896;48.178;11.578;2023-03-23T03:43:08;95337.31;;;12.32;51.58
58092;BME280;43896;48.178;11.578;2023-03-23T03:45:33;95290.69;;;12.18;51.19
58092;BME280;43896;48.178;11.578;2023-03-23T03:47:58;95290.06;;;12.16;50.80
58092;BME280;43896;48.178;11.578;2023-03-23T03:50:24;95332.69;;;12.49;50.80
58092;BME280;43896;48.178;11.578;2023-03-23T03:52:49;95269.75;;;12.01;51.90
58092;BME280;43896;48.178;11.578;2023-03-23T03:55:14;95353.59;;;12.51;51.51
58092;BME280;43896;48.178;11.578;2023-03-23T03:57:42;95318.25;;;12.15;51.76
58092;BME280;43896;48.178;11.578;2023-03-23T04:00:09;95374.78;;;12.43;51.32
58092;BME280;43896;48.178;11.578;2023-03-23T04:02:46;95319.41;;;12.13;51.44
58092;BME280;43896;48.178;11.578;2023-03-23T04:05:21;95371.44;;;12.49;51.26
58092;BME280;43896;48.178;11.578;2023-03-23T04:07:46;95317.56;;;12.13;51.09
58092;BME280;43896;48.178;11.578;2023-03-23T04:10:15;95323.84;;;12.27;50.63
58092;BME280;43896;48.178;11.578;2023-03-23T04:12:41;95379.25;;;12.72;50.39
58092;BME280;43896;48.178;11.578;2023-03-23T04:15:07;95321.13;;;12.35;50.71
58092;BME280;43896;48.178;11.578;2023-03-23T04:17:33;95305.22;;;12.29;50.84
58092;BME280;43896;48.178;11.578;2023-03-23T04:19:59;95351.06;;;12.57;50.41
58092;BME280;43896;48.178;11.578;2023-03-23T04:22:29;95279.50;;;12.16;50.27
58092;BME280;43896;48.178;11.578;2023-03-23T04:24:59;95340.88;;;12.54;50.92
58092;BME280;43896;48.178;11.578;2023-03-23T04:27:27;95268.13;;;12.00;51.83
58092;BME280;43896;48.178;11.578;2023-03-23T04:29:54;95339.41;;;12.37;51.83
58092;BME280;43896;48.178;11.578;2023-03-23T04:32:19;95282.13;;;12.01;52.05
58092;BME280;43896;48.178;11.578;2023-03-23T04:34:45;95318.41;;;12.14;51.92
58092;BME280;43896;48.178;11.578;2023-03-23T04:37:10;95368.97;;;12.47;51.19
58092;BME280;43896;48.178;11.578;2023-03-23T04:39:38;95389.75;;;12.65;50.64
58092;BME280;43896;48.178;11.578;2023-03-23T04:42:05;95383.16;;;12.61;50.44
58092;BME280;43896;48.178;11.578;2023-03-23T04:44:30;95387.63;;;12.61;50.24
58092;BME280;43896;48.178;11.578;2023-03-23T04:47:00;95292.06;;;12.14;49.86
58092;BME280;43896;48.178;11.578;2023-03-23T04:49:26;95395.16;;;12.79;49.91
58092;BME280;43896;48.178;11.578;2023-03-23T04:51:52;95325.88;;;12.40;49.96
58092;BME280;43896;48.178;11.578;2023-03-23T04:54:17;95311.22;;;12.37;49.76
58092;BME280;43896;48.178;11.578;2023-03-23T04:56:42;95339.78;;;12.49;49.66
58092;BME280;43896;48.178;11.578;2023-03-23T04:59:08;95370.25;;;12.66;49.95
58092;BME280;43896;48.178;11.578;2023-03-23T05:01:33;95302.06;;;12.33;50.03
58092;BME280;43896;48.178;11.578;2023-03-23T05:04:04;95314.59;;;12.46;49.93
58092;BME280;43896;48.178;11.578;2023-03-23T05:06:30;95392.91;;;12.90;50.04
58092;BME280;43896;48.178;11.578;2023-03-23T05:08:55;95341.97;;;12.45;50.06
58092;BME280;43896;48.178;11.578;2023-03-23T05:11:21;95379.06;;;12.73;49.76
58092;BME280;43896;48.178;11.578;2023-03-23T05:13:47;95340.78;;;12.48;49.84
58092;BME280;43896;48.178;11.578;2023-03-23T05:16:12;95338.31;;;12.46;50.28
58092;BME280;43896;48.178;11.578;2023-03-23T05:18:38;95348.50;;;12.64;49.90
58092;BME280;43896;48.178;11.578;2023-03-23T05:21:04;95300.84;;;12.36;49.86
58092;BME280;43896;48.178;11.578;2023-03-23T05:23:30;95322.97;;;12.50;49.50
58092;BME280;43896;48.178;11.578;2023-03-23T05:25:58;95347.03;;;12.62;50.17
58092;BME280;43896;48.178;11.578;2023-03-23T05:28:28;95319.78;;;12.40;49.88
58092;BME280;43896;48.178;11.578;2023-03-23T05:30:55;95321.88;;;12.44;49.67
58092;BME280;43896;48.178;11.578;2023-03-23T05:33:21;95422.91;;;13.04;49.69
58092;BME280;43896;48.178;11.578;2023-03-23T05:35:47;95341.31;;;12.58;50.03
58092;BME280;43896;48.178;11.578;2023-03-23T05:38:14;95354.91;;;12.55;49.87
58092;BME280;43896;48.178;11.578;2023-03-23T05:40:40;95422.56;;;13.07;50.06
58092;BME280;43896;48.178;11.578;2023-03-23T05:43:09;95427.84;;;13.07;49.84
58092;BME280;43896;48.178;11.578;2023-03-23T05:45:35;95397.19;;;12.91;49.74
58092;BME280;43896;48.178;11.578;2023-03-23T05:48:01;95392.16;;;12.97;49.57
58092;BME280;43896;48.178;11.578;2023-03-23T05:50:26;95405.81;;;13.00;49.89
58092;BME280;43896;48.178;11.578;2023-03-23T05:52:53;95391.81;;;13.00;49.87
58092;BME280;43896;48.178;11.578;2023-03-23T05:55:19;95348.88;;;12.61;51.00
58092;BME280;43896;48.178;11.578;2023-03-23T05:57:44;95359.06;;;12.64;51.01
58092;BME280;43896;48.178;11.578;2023-03-23T06:00:10;95340.34;;;12.59;50.74
58092;BME280;43896;48.178;11.578;2023-03-23T06:02:47;95360.84;;;12.93;50.26
58092;BME280;43896;48.178;11.578;2023-03-23T06:05:13;95347.69;;;12.79;50.52
58092;BME280;43896;48.178;11.578;2023-03-23T06:07:39;95336.88;;;12.59;50.89
58092;BME280;43896;48.178;11.578;2023-03-23T06:10:06;95344.88;;;12.65;51.26
58092;BME280;43896;48.178;11.578;2023-03-23T06:12:32;95345.78;;;12.72;50.69
58092;BME280;43896;48.178;11.578;2023-03-23T06:14:57;95340.47;;;12.87;50.39
58092;BME280;43896;48.178;11.578;2023-03-23T06:17:23;95356.13;;;12.89;50.72
58092;BME280;43896;48.178;11.578;2023-03-23T06:19:49;95358.41;;;12.92;50.23
58092;BME280;43896;48.178;11.578;2023-03-23T06:22:16;95329.78;;;12.59;50.71
58092;BME280;43896;48.178;11.578;2023-03-23T06:24:41;95358.13;;;12.87;50.20
58092;BME280;43896;48.178;11.578;2023-03-23T06:27:07;95354.59;;;12.80;49.98
58092;BME280;43896;48.178;11.578;2023-03-23T06:29:35;95379.50;;;12.92;50.73
58092;BME280;43896;48.178;11.578;2023-03-23T06:32:04;95379.34;;;12.93;50.38
58092;BME280;43896;48.178;11.578;2023-03-23T06:34:31;95366.88;;;12.87;49.90
58092;BME280;43896;48.178;11.578;2023-03-23T06:36:57;95372.50;;;12.99;49.88
58092;BME280;43896;48.178;11.578;2023-03-23T06:39:22;95376.69;;;12.93;49.85
58092;BME280;43896;48.178;11.578;2023-03-23T06:41:48;95385.69;;;12.99;50.09
58092;BME280;43896;48.178;11.578;2023-03-23T06:44:14;95355.84;;;12.99;49.71
58092;BME280;43896;48.178;11.578;2023-03-23T06:46:40;95377.50;;;13.09;49.78
58092;BME280;43896;48.178;11.578;2023-03-23T06:49:06;95347.84;;;12.92;50.36
58092;BME280;43896;48.178;11.578;2023-03-23T06:51:31;95352.75;;;12.95;50.39
58092;BME280;43896;48.178;11.578;2023-03-23T06:53:57;95346.88;;;12.63;51.12
58092;BME280;43896;48.178;11.578;2023-03-23T06:56:23;95359.13;;;12.86;50.86
58092;BME280;43896;48.178;11.578;2023-03-23T06:58:48;95360.94;;;13.00;50.37
58092;BME280;43896;48.178;11.578;2023-03-23T07:01:14;95346.94;;;13.00;50.26
58092;BME280;43896;48.178;11.578;2023-03-23T07:03:40;95342.72;;;13.05;49.88
58092;BME280;43896;48.178;11.578;2023-03-23T07:06:06;95314.69;;;13.04;49.45
58092;BME280;43896;48.178;11.578;2023-03-23T07:08:32;95346.63;;;13.09;49.55
58092;BME280;43896;48.178;11.578;2023-03-23T07:10:57;95355.13;;;13.41;49.27
58092;BME280;43896;48.178;11.578;2023-03-23T07:13:23;95356.00;;;13.48;49.39
58092;BME280;43896;48.178;11.578;2023-03-23T07:15:48;95366.72;;;13.62;49.01
58092;BME280;43896;48.178;11.578;2023-03-23T07:18:14;95363.41;;;13.60;48.79
58092;BME280;43896;48.178;11.578;2023-03-23T07:20:40;95354.31;;;13.62;48.57
58092;BME280;43896;48.178;11.578;2023-03-23T07:23:06;95354.19;;;13.71;48.19
58092;BME280;43896;48.178;11.578;2023-03-23T07:25:33;95350.59;;;13.78;47.99
58092;BME280;43896;48.178;11.578;2023-03-23T07:28:02;95365.22;;;14.02;47.94
58092;BME280;43896;48.178;11.578;2023-03-23T07:30:28;95365.69;;;14.34;47.11
58092;BME280;43896;48.178;11.578;2023-03-23T07:32:55;95356.16;;;14.68;46.03
58092;BME280;43896;48.178;11.578;2023-03-23T07:35:21;95362.50;;;14.74;46.41
58092;BME280;43896;48.178;11.578;2023-03-23T07:37:46;95351.06;;;14.67;45.96
58092;BME280;43896;48.178;11.578;2023-03-23T07:40:14;95356.66;;;14.57;46.35
58092;BME280;43896;48.178;11.578;2023-03-23T07:42:44;95342.69;;;14.70;44.90
58092;BME280;43896;48.178;11.578;2023-03-23T07:45:11;95356.84;;;14.90;44.73
58092;BME280;43896;48.178;11.578;2023-03-23T07:47:38;95347.41;;;14.74;44.58
58092;BME280;43896;48.178;11.578;2023-03-23T07:50:04;95353.97;;;14.85;44.82
58092;BME280;43896;48.178;11.578;2023-03-23T07:52:30;95352.44;;;14.97;44.92
58092;BME280;43896;48.178;11.578;2023-03-23T07:54:56;95344.28;;;15.06;44.79
58092;BME280;43896;48.178;11.578;2023-03-23T07:57:21;95358.44;;;15.33;44.63
58092;BME280;43896;48.178;11.578;2023-03-23T07:59:47;95358.72;;;14.96;44.80
58092;BME280;43896;48.178;11.578;2023-03-23T08:02:12;95348.56;;;15.00;44.27
58092;BME280;43896;48.178;11.578;2023-03-23T08:04:38;95347.50;;;14.88;45.00
58092;BME280;43896;48.178;11.578;2023-03-23T08:07:04;95361.44;;;15.10;43.84
58092;BME280;43896;48.178;11.578;2023-03-23T08:09:31;95350.66;;;14.70;44.47
58092;BME280;43896;48.178;11.578;2023-03-23T08:11:56;95332.38;;;14.81;44.92
58092;BME280;43896;48.178;11.578;2023-03-23T08:14:22;95346.03;;;14.78;45.39
58092;BME280;43896;48.178;11.578;2023-03-23T08:16:51;95339.84;;;15.06;44.45
58092;BME280;43896;48.178;11.578;2023-03-23T08:19:17;95334.84;;;14.83;45.05
58092;BME280;43896;48.178;11.578;2023-03-23T08:21:42;95345.53;;;15.10;44.25
58092;BME280;43896;48.178;11.578;2023-03-23T08:24:07;95359.88;;;15.29;44.07
58092;BME280;43896;48.178;11.578;2023-03-23T08:26:32;95354.44;;;14.95;44.79
58092;BME280;43896;48.178;11.578;2023-03-23T08:28:58;95363.09;;;15.24;43.95
58092;BME280;43896;48.178;11.578;2023-03-23T08:31:23;95364.34;;;15.22;44.41
58092;BME280;43896;48.178;11.578;2023-03-23T08:33:49;95356.19;;;15.23;44.06
58092;BME280;43896;48.178;11.578;2023-03-23T08:36:15;95369.66;;;15.28;44.54
58092;BME280;43896;48.178;11.578;2023-03-23T08:38:40;95353.31;;;15.25;43.67
58092;BME280;43896;48.178;11.578;2023-03-23T08:41:06;95377.84;;;15.47;43.15
58092;BME280;43896;48.178;11.578;2023-03-23T08:43:33;95378.88;;;15.46;43.00
58092;BME280;43896;48.178;11.578;2023-03-23T08:45:59;95383.56;;;15.50;42.12
58092;BME280;43896;48.178;11.578;2023-03-23T08:48:24;95371.34;;;15.49;42.09
58092;BME280;43896;48.178;11.578;2023-03-23T08:50:50;95377.28;;;15.65;41.88
58092;BME280;43896;48.178;11.578;2023-03-23T08:53:16;95390.59;;;15.78;41.79
58092;BME280;43896;48.178;11.578;2023-03-23T08:55:41;95393.44;;;15.83;41.50
58092;BME280;43896;48.178;11.578;2023-03-23T08:58:08;95392.66;;;15.89;41.28
58092;BME280;43896;48.178;11.578;2023-03-23T09:00:34;95396.13;;;16.03;41.04
58092;BME280;43896;48.178;11.578;2023-03-23T09:02:59;95389.81;;;16.11;41.06
58092;BME280;43896;48.178;11.578;2023-03-23T09:05:26;95393.09;;;16.20;41.04
58092;BME280;43896;48.178;11.578;2023-03-23T09:07:55;95366.94;;;16.10;40.57
58092;BME280;43896;48.178;11.578;2023-03-23T09:10:23;95403.06;;;16.51;40.40
58092;BME280;43896;48.178;11.578;2023-03-23T09:12:49;95409.97;;;16.65;40.57
58092;BME280;43896;48.178;11.578;2023-03-23T09:15:17;95410.59;;;16.74;40.67
58092;BME280;43896;48.178;11.578;2023-03-23T09:17:48;95422.84;;;16.68;41.40
58092;BME280;43896;48.178;11.578;2023-03-23T09:20:17;95422.03;;;16.68;41.00
58092;BME280;43896;48.178;11.578;2023-03-23T09:22:47;95418.75;;;16.86;40.87
58092;BME280;43896;48.178;11.578;2023-03-23T09:25:14;95393.25;;;16.72;40.45
58092;BME280;43896;48.178;11.578;2023-03-23T09:27:42;95427.13;;;16.90;39.73
58092;BME280;43896;48.178;11.578;2023-03-23T09:30:10;95419.91;;;17.17;39.31
58092;BME280;43896;48.178;11.578;2023-03-23T09:32:38;95425.81;;;17.19;39.27
58092;BME280;43896;48.178;11.578;2023-03-23T09:35:06;95429.34;;;17.06;38.89
58092;BME280;43896;48.178;11.578;2023-03-23T09:37:37;95428.09;;;17.15;38.74
58092;BME280;43896;48.178;11.578;2023-03-23T09:40:04;95409.56;;;17.02;39.17
58092;BME280;43896;48.178;11.578;2023-03-23T09:42:49;95423.34;;;17.24;38.93
58092;BME280;43896;48.178;11.578;2023-03-23T09:45:25;95424.75;;;17.40;38.60
58092;BME280;43896;48.178;11.578;2023-03-23T09:48:07;95407.19;;;17.32;39.08
58092;BME280;43896;48.178;11.578;2023-03-23T09:50:40;95401.78;;;17.52;39.05
58092;BME280;43896;48.178;11.578;2023-03-23T09:53:16;95391.84;;;17.73;37.60
58092;BME280;43896;48.178;11.578;2023-03-23T09:55:43;95402.63;;;17.85;36.89
58092;BME280;43896;48.178;11.578;2023-03-23T09:58:28;95422.31;;;18.15;36.50
58092;BME280;43896;48.178;11.578;2023-03-23T10:01:10;95406.22;;;18.04;36.46
58092;BME280;43896;48.178;11.578;2023-03-23T10:03:40;95424.31;;;18.20;36.32
58092;BME280;43896;48.178;11.578;2023-03-23T10:06:10;95406.34;;;18.15;36.56
58092;BME280;43896;48.178;11.578;2023-03-23T10:08:45;95399.84;;;18.05;37.07
58092;BME280;43896;48.178;11.578;2023-03-23T10:11:31;95411.34;;;18.05;37.03
58092;BME280;43896;48.178;11.578;2023-03-23T10:17:27;95427.75;;;17.95;37.69
58092;BME280;43896;48.178;11.578;2023-03-23T10:23:11;95427.88;;;17.69;38.39
58092;BME280;43896;48.178;11.578;2023-03-23T10:25:42;95405.47;;;17.51;37.63
58092;BME280;43896;48.178;11.578;2023-03-23T10:30:40;95432.00;;;17.65;37.53
58092;BME280;43896;48.178;11.578;2023-03-23T10:33:11;95436.53;;;17.57;37.90
58092;BME280;43896;48.178;11.578;2023-03-23T10:35:52;95436.94;;;17.54;37.97
58092;BME280;43896;48.178;11.578;2023-03-23T10:38:26;95437.97;;;17.53;37.49
58092;BME280;43896;48.178;11.578;2023-03-23T10:40:58;95437.16;;;17.53;36.95
58092;BME280;43896;48.178;11.578;2023-03-23T10:43:24;95436.53;;;17.57;36.71
58092;BME280;43896;48.178;11.578;2023-03-23T10:46:52;95428.59;;;17.44;36.68
58092;BME280;43896;48.178;11.578;2023-03-23T10:48:52;95399.63;;;17.29;35.99
58092;BME280;43896;48.178;11.578;2023-03-23T10:51:21;95422.28;;;17.45;36.28
58092;BME280;43896;48.178;11.578;2023-03-23T10:53:56;95426.38;;;17.34;37.24
58092;BME280;43896;48.178;11.578;2023-03-23T10:56:24;95427.59;;;17.45;36.41
58092;BME280;43896;48.178;11.578;2023-03-23T10:58:49;95422.66;;;17.49;36.89
58092;BME280;43896;48.178;11.578;2023-03-23T11:01:18;95430.25;;;17.45;36.58
58092;BME280;43896;48.178;11.578;2023-03-23T11:03:46;95412.66;;;17.44;37.09
58092;BME280;43896;48.178;11.578;2023-03-23T11:06:23;95432.38;;;17.68;37.32
58092;BME280;43896;48.178;11.578;2023-03-23T11:08:57;95435.31;;;17.53;36.91
58092;BME280;43896;48.178;11.578;2023-03-23T11:11:32;95411.16;;;17.55;37.38
58092;BME280;43896;48.178;11.578;2023-03-23T11:14:03;95435.44;;;17.72;36.98
58092;BME280;43896;48.178;11.578;2023-03-23T11:16:43;95425.19;;;17.69;37.26
58092;BME280;43896;48.178;11.578;2023-03-23T11:19:14;95431.94;;;17.78;36.68
58092;BME280;43896;48.178;11.578;2023-03-23T11:21:40;95433.16;;;17.75;37.29
58092;BME280;43896;48.178;11.578;2023-03-23T11:24:11;95429.31;;;17.65;37.56
58092;BME280;43896;48.178;11.578;2023-03-23T11:26:37;95419.28;;;17.67;37.64
58092;BME280;43896;48.178;11.578;2023-03-23T11:29:10;95409.59;;;17.79;37.73
58092;BME280;43896;48.178;11.578;2023-03-23T11:31:42;95425.53;;;17.92;38.24
58092;BME280;43896;48.178;11.578;2023-03-23T11:34:15;95415.22;;;18.03;37.72
58092;BME280;43896;48.178;11.578;2023-03-23T11:36:43;95416.81;;;18.10;37.14
58092;BME280;43896;48.178;11.578;2023-03-23T11:39:26;95414.09;;;18.17;37.23
58092;BME280;43896;48.178;11.578;2023-03-23T11:41:53;95402.41;;;18.18;36.56
58092;BME280;43896;48.178;11.578;2023-03-23T11:44:21;95410.47;;;18.36;36.46
58092;BME280;43896;48.178;11.578;2023-03-23T11:46:55;95415.03;;;18.54;36.27
58092;BME280;43896;48.178;11.578;2023-03-23T11:49:36;95405.63;;;18.52;36.56
58092;BME280;43896;48.178;11.578;2023-03-23T11:52:13;95411.22;;;18.44;36.50
58092;BME280;43896;48.178;11.578;2023-03-23T11:54:48;95411.06;;;18.39;36.31
58092;BME280;43896;48.178;11.578;2023-03-23T11:57:15;95402.91;;;18.33;36.82
58092;BME280;43896;48.178;11.578;2023-03-23T11:59:41;95391.69;;;18.31;36.80
58092;BME280;43896;48.178;11.578;2023-03-23T12:07:43;95386.25;;;18.45;36.64
58092;BME280;43896;48.178;11.578;2023-03-23T12:10:38;95397.38;;;18.60;35.98
58092;BME280;43896;48.178;11.578;2023-03-23T12:16:26;95389.53;;;18.65;35.97
58092;BME280;43896;48.178;11.578;2023-03-23T12:19:09;95390.16;;;18.86;35.70
58092;BME280;43896;48.178;11.578;2023-03-23T12:22:01;95392.31;;;18.96;34.92
58092;BME280;43896;48.178;11.578;2023-03-23T12:27:32;95393.91;;;19.03;35.21
58092;BME280;43896;48.178;11.578;2023-03-23T12:30:12;95394.03;;;18.90;35.57
58092;BME280;43896;48.178;11.578;2023-03-23T12:35:25;95392.53;;;18.94;35.55
58092;BME280;43896;48.178;11.578;2023-03-23T12:43:52;95386.72;;;18.79;34.33
58092;BME280;43896;48.178;11.578;2023-03-23T12:52:13;95370.16;;;18.77;34.72
58092;BME280;43896;48.178;11.578;2023-03-23T12:54:44;95362.97;;;18.33;35.78
58092;BME280;43896;48.178;11.578;2023-03-23T12:57:20;95367.75;;;18.50;34.09
58092;BME280;43896;48.178;11.578;2023-03-23T12:59:54;95375.91;;;18.55;34.21
58092;BME280;43896;48.178;11.578;2023-03-23T13:02:25;95373.91;;;18.50;33.97
58092;BME280;43896;48.178;11.578;2023-03-23T13:05:07;95368.78;;;18.49;33.81
58092;BME280;43896;48.178;11.578;2023-03-23T13:07:43;95348.94;;;18.26;34.49
58092;BME280;43896;48.178;11.578;2023-03-23T13:10:20;95350.84;;;18.37;34.67
58092;BME280;43896;48.178;11.578;2023-03-23T13:12:47;95343.47;;;18.40;34.22
58092;BME280;43896;48.178;11.578;2023-03-23T13:20:54;95366.19;;;18.42;33.52
58092;BME280;43896;48.178;11.578;2023-03-23T13:23:37;95354.69;;;18.23;33.84
58092;BME280;43896;48.178;11.578;2023-03-23T13:26:09;95363.84;;;18.27;34.12
58092;BME280;43896;48.178;11.578;2023-03-23T13:28:54;95361.31;;;18.14;35.58
58092;BME280;43896;48.178;11.578;2023-03-23T13:31:23;95352.00;;;18.23;35.81
58092;BME280;43896;48.178;11.578;2023-03-23T13:34:03;95336.19;;;18.28;36.61
58092;BME280;43896;48.178;11.578;2023-03-23T13:36:33;95341.69;;;17.76;39.26
58092;BME280;43896;48.178;11.578;2023-03-23T13:39:02;95362.25;;;17.94;40.00
58092;BME280;43896;48.178;11.578;2023-03-23T13:41:29;95363.03;;;18.02;39.86
58092;BME280;43896;48.178;11.578;2023-03-23T13:44:26;95352.13;;;17.78;39.81
58092;BME280;43896;48.178;11.578;2023-03-23T13:47:07;95328.88;;;17.67;40.25
58092;BME280;43896;48.178;11.578;2023-03-23T13:49:33;95343.91;;;18.11;40.18
58092;BME280;43896;48.178;11.578;2023-03-23T13:52:25;95348.59;;;18.16;39.74
58092;BME280;43896;48.178;11.578;2023-03-23T14:03:14;95358.34;;;18.22;39.96
58092;BME280;43896;48.178;11.578;2023-03-23T14:10:59;95360.38;;;18.27;39.27
58092;BME280;43896;48.178;11.578;2023-03-23T14:13:33;95357.94;;;18.25;38.48